Escondido, CA (92025)

6:09 PM PDT on October 24, 2014 (GMT -0700)
KCAESCON21 | Change Station
CLOSE
Current Station
Personal Weather Station
Location: Escondido, CA
Elevation: 646 ft
Nearby Weather Stations

Elev 646 ft 33.09 °N, 117.08 °W | Updated 59 seconds ago

Clear
Clear
81.8 °F
Feels Like 80 °F
N
0.0
Wind Variable Wind from WSW
Gusts 0.0 mph

Today
High -- | Low -- °F
--% Chance of Precip.
Yesterday
High -- | Low -- °F
Precip. -- in
6:59 AM 6:04 PM
New Moon, 1% visible
Pressure 29.96 in
Visibility 10.0 miles
Clouds Clear
Heat Index 80 °F
Dew Point 42 °F
Humidity 25%
Rainfall 0.00 in
Snow Depth Not available.
UV 0 out of 12
Pollen 3.80 out of 12
Ozone Good
PM2.5 Moderate
Flu Activity Sporadic
METAR KRNM 250053Z 30006KT 10SM CLR 25/02 A2998 RMK AO2 SLP144 T02500017

More Conditions Fewer Conditions

Pressure 29.96 in
Visibility 10.0 miles
Clouds Clear
Heat Index 80 °F
Dew Point 42 °F
Humidity 25%
Rainfall 0.00 in
Snow Depth Not available.
UV 0 out of 12
Pollen 3.80 out of 12
Ozone Good
PM2.5 Moderate
Flu Activity Sporadic
METAR KRNM 250053Z 30006KT 10SM CLR 25/02 A2998 RMK AO2 SLP144 T02500017

More Conditions Fewer Conditions

10-Day Weather Forecast

Almanac

Astronomy

Oct. 24, 2014 Rise Set
Actual Time 6:59 AM PDT 6:04 PM PDT
Civil Twilight 6:34 AM PDT 6:29 PM PDT
Nautical Twilight 6:05 AM PDT 6:58 PM PDT
Astronomical Twilight 5:36 AM PDT 7:27 PM PDT
Moon 7:41 AM PDT (10/24) 6:50 PM PDT (10/24)
Length of Visible Light 11h 55m
Length of Day
11h 04m
Tomorrow will be 1m 52s shorter.
New Moon, 1% of the Moon is Illuminated
Today
New Moon
Oct 30
First Quarter
Nov 6
Full
Nov 14
Last Quarter
Nov 22
New

Today's Extremes

State Highs State Lows

Community

WunderPhotos

Upload Photos

1,764,737 photos uploaded!

WunderBlogs® & News

Nearby

Air Quality

  Air Quality AQ Index Pollutant
Yesterday Moderate
PM2.5
Yesterday Good
OZONE
Current Moderate
PM2.5
Current Good
OZONE
Friday Moderate
PM2.5
Friday Good
OZONE
Saturday Moderate
PM2.5
Saturday Good
OZONE
Sunday Good
PM2.5
Sunday Good
OZONE
Monday Good
PM2.5
Monday Good
OZONE

Snow Depth

Station Depth Elevation
Leavitt Meadows 0 in 7200 ft
Summit Meadow 0 in 9122 ft
Echo Peak 0 in 7800 ft
Ward Creek #3 12 in 6750 ft
Adin Mountain 0 in 6200 ft

Earthquake Activity

City Distance Mag. Time & Date
Maneadero, Mexico 124 miles 2.5 7:44 AM PDT
2014-10-24
San Felipe, Mexico 145 miles 3.0 11:00 PM PDT
2014-10-23
Brea, California 74 miles 2.9 3:35 PM PDT
2014-10-23
Brea, California 74 miles 2.8 3:34 PM PDT
2014-10-23
Minimum magnitude displayed is 2.5.

Coastal Water Temperatures

Place Temperature
La Jolla, CA 71.1 °F
San Diego, CA 75.0 °F

Nearby Weather Stations